createdAt,value
2018-12-26T00:00:04.231Z,24.70
2018-12-26T00:02:46.844Z,30.17
2018-12-26T00:05:27.826Z,29.97
2018-12-26T00:08:08.459Z,29.03
2018-12-26T00:10:49.058Z,31.57
2018-12-26T00:13:32.881Z,30.67
2018-12-26T00:16:13.362Z,32.70
2018-12-26T00:18:54.121Z,29.93
2018-12-26T00:21:35.255Z,27.50
2018-12-26T00:24:16.175Z,26.10
2018-12-26T00:26:56.903Z,26.20
2018-12-26T00:29:37.486Z,25.27
2018-12-26T00:35:03.495Z,23.90
2018-12-26T00:40:29.267Z,25.40
2018-12-26T00:45:49.235Z,23.23
2018-12-26T00:48:30.064Z,21.37
2018-12-26T00:51:10.819Z,21.63
2018-12-26T00:53:51.890Z,22.13
2018-12-26T00:56:34.213Z,21.53
2018-12-26T00:59:18.442Z,18.83
2018-12-26T01:04:43.215Z,22.20
2018-12-26T01:07:23.447Z,22.10
2018-12-26T01:10:04.114Z,20.63
2018-12-26T01:12:44.672Z,20.40
2018-12-26T01:15:25.531Z,18.13
2018-12-26T01:18:06.191Z,18.83
2018-12-26T01:20:46.872Z,18.20
2018-12-26T01:23:28.506Z,17.83
2018-12-26T01:26:09.455Z,16.93
2018-12-26T01:28:49.737Z,18.43
2018-12-26T01:31:30.504Z,19.30
2018-12-26T01:37:08.488Z,18.20
2018-12-26T01:39:49.239Z,18.27
2018-12-26T01:42:30.372Z,15.53
2018-12-26T01:45:11.354Z,17.90
2018-12-26T01:47:54.475Z,17.43
2018-12-26T01:50:35.443Z,17.23
2018-12-26T01:53:15.775Z,18.60
2018-12-26T01:55:56.833Z,21.67
2018-12-26T01:58:37.226Z,18.47
2018-12-26T02:01:19.092Z,18.30
2018-12-26T02:06:52.215Z,21.10
2018-12-26T02:09:33.223Z,21.00
2018-12-26T02:12:14.346Z,20.30
2018-12-26T02:14:54.957Z,20.63
2018-12-26T02:17:35.418Z,20.70
2018-12-26T02:20:16.300Z,22.33
2018-12-26T02:22:57.935Z,21.40
2018-12-26T02:25:38.891Z,20.97
2018-12-26T02:28:19.587Z,20.03
2018-12-26T02:31:03.538Z,17.77
2018-12-26T02:33:44.842Z,19.83
2018-12-26T02:36:26.093Z,19.57
2018-12-26T02:39:06.998Z,19.60
2018-12-26T02:41:50.802Z,20.57
2018-12-26T02:44:31.167Z,18.93
2018-12-26T02:50:03.611Z,19.97
2018-12-26T02:52:44.207Z,18.60
2018-12-26T02:55:24.775Z,21.00
2018-12-26T02:58:05.922Z,20.03
2018-12-26T03:00:47.567Z,18.87
2018-12-26T03:03:28.512Z,21.53
2018-12-26T03:06:09.564Z,20.43
2018-12-26T03:08:49.746Z,22.90
2018-12-26T03:11:30.374Z,24.07
2018-12-26T03:14:11.824Z,23.90
2018-12-26T03:16:53.013Z,23.57
2018-12-26T03:19:33.746Z,22.33
2018-12-26T03:22:14.308Z,24.00
2018-12-26T03:24:54.958Z,22.10
2018-12-26T03:27:36.757Z,22.27
2018-12-26T03:30:17.700Z,21.90
2018-12-26T03:32:58.538Z,17.63
2018-12-26T03:35:39.294Z,22.50
2018-12-26T03:38:19.839Z,21.00
2018-12-26T03:41:00.406Z,22.60
2018-12-26T03:43:41.856Z,20.43
2018-12-26T03:46:22.858Z,21.07
2018-12-26T03:49:03.844Z,20.97
2018-12-26T03:51:44.702Z,17.93
2018-12-26T03:54:25.298Z,19.10
2018-12-26T03:57:06.755Z,23.10
2018-12-26T03:59:47.238Z,22.27
2018-12-26T04:02:28.206Z,24.13
2018-12-26T04:05:08.863Z,21.93
2018-12-26T04:07:49.533Z,21.83
2018-12-26T04:10:30.685Z,22.43
2018-12-26T04:13:10.994Z,22.20
2018-12-26T04:15:51.582Z,21.40
2018-12-26T04:18:32.729Z,20.77
2018-12-26T04:21:13.385Z,22.10
2018-12-26T04:23:54.919Z,23.20
2018-12-26T04:26:35.730Z,23.33
2018-12-26T04:32:00.759Z,24.10
2018-12-26T04:34:41.765Z,21.73
2018-12-26T04:37:22.639Z,21.20
2018-12-26T04:40:04.129Z,22.33
2018-12-26T04:42:48.195Z,19.27
2018-12-26T04:45:28.507Z,20.87
2018-12-26T04:48:10.131Z,20.60
2018-12-26T04:50:51.258Z,21.57
2018-12-26T04:53:32.021Z,21.80
2018-12-26T04:56:12.581Z,25.63
2018-12-26T04:58:53.948Z,20.33
2018-12-26T05:01:34.391Z,21.10
2018-12-26T05:04:14.581Z,22.93
2018-12-26T05:09:41.627Z,26.90
2018-12-26T05:12:22.672Z,23.67
2018-12-26T05:15:02.948Z,28.73
2018-12-26T05:17:43.432Z,26.57
2018-12-26T05:20:24.819Z,25.57
2018-12-26T05:23:05.573Z,29.13
2018-12-26T05:25:46.682Z,26.83
2018-12-26T05:28:27.013Z,25.57
2018-12-26T05:31:07.822Z,23.27
2018-12-26T05:33:49.322Z,25.97
2018-12-26T05:36:29.815Z,24.83
2018-12-26T05:39:10.214Z,20.50
2018-12-26T05:41:54.975Z,21.90
2018-12-26T05:44:35.787Z,20.17
2018-12-26T05:47:16.773Z,22.10
2018-12-26T05:49:57.554Z,21.97
2018-12-26T05:52:38.190Z,25.13
2018-12-26T05:58:02.616Z,21.87
2018-12-26T06:00:43.180Z,26.53
2018-12-26T06:06:27.626Z,21.17
2018-12-26T06:09:10.039Z,23.27
2018-12-26T06:11:50.310Z,23.10
2018-12-26T06:14:30.981Z,25.10
2018-12-26T06:17:12.804Z,25.27
2018-12-26T06:19:54.065Z,24.87
2018-12-26T06:22:34.858Z,24.60
2018-12-26T06:25:15.440Z,21.23
2018-12-26T06:27:56.145Z,19.80
2018-12-26T06:30:37.014Z,21.70
2018-12-26T06:33:17.721Z,24.20
2018-12-26T06:35:59.343Z,24.37
2018-12-26T06:38:40.122Z,22.40
2018-12-26T06:41:20.895Z,21.37
2018-12-26T06:44:01.688Z,20.50
2018-12-26T06:46:42.378Z,24.23
2018-12-26T06:49:23.099Z,23.07
2018-12-26T06:52:03.861Z,21.97
2018-12-26T06:54:45.437Z,24.00
2018-12-26T06:57:27.366Z,26.70
2018-12-26T07:02:53.632Z,24.50
2018-12-26T07:05:34.230Z,25.43
2018-12-26T07:08:15.071Z,23.20
2018-12-26T07:13:40.628Z,21.03
2018-12-26T07:16:22.263Z,21.77
2018-12-26T07:19:02.718Z,22.13
2018-12-26T07:21:43.487Z,26.60
2018-12-26T07:24:24.246Z,28.80
2018-12-26T07:27:05.181Z,29.00
2018-12-26T07:29:45.639Z,29.63
2018-12-26T07:32:27.914Z,32.83
2018-12-26T07:35:09.009Z,26.17
2018-12-26T07:37:50.865Z,24.60
2018-12-26T07:43:10.678Z,27.17
2018-12-26T07:45:51.606Z,29.97
2018-12-26T07:48:32.318Z,30.80
2018-12-26T07:51:15.270Z,27.40
2018-12-26T07:53:55.771Z,27.10
2018-12-26T07:56:36.483Z,28.57
2018-12-26T07:59:17.057Z,28.57
2018-12-26T08:01:57.942Z,25.50
2018-12-26T08:04:39.503Z,21.57
2018-12-26T08:07:21.361Z,26.43
2018-12-26T08:10:02.248Z,25.57
2018-12-26T08:12:43.288Z,26.50
2018-12-26T08:15:24.314Z,23.00
2018-12-26T08:18:05.224Z,26.87
2018-12-26T08:20:45.948Z,26.83
2018-12-26T08:23:26.776Z,26.27
2018-12-26T08:28:51.155Z,24.50
2018-12-26T08:31:32.122Z,25.93
2018-12-26T08:34:12.959Z,25.53
2018-12-26T08:36:53.852Z,25.33
2018-12-26T08:39:34.598Z,22.70
2018-12-26T08:42:14.933Z,25.53
2018-12-26T08:44:55.719Z,25.30
2018-12-26T08:47:36.942Z,26.60
2018-12-26T08:50:18.503Z,24.40
2018-12-26T08:52:59.771Z,25.37
2018-12-26T08:55:41.130Z,24.27
2018-12-26T08:58:22.566Z,23.30
2018-12-26T09:01:04.022Z,25.27
2018-12-26T09:03:45.369Z,23.07
2018-12-26T09:06:26.572Z,25.37
2018-12-26T09:09:11.285Z,24.27
2018-12-26T09:14:35.828Z,25.53
2018-12-26T09:17:16.130Z,23.87
2018-12-26T09:19:57.073Z,26.17
2018-12-26T09:25:24.165Z,24.40
2018-12-26T09:28:05.689Z,23.67
2018-12-26T09:30:46.871Z,23.93
2018-12-26T09:33:28.101Z,25.80
2018-12-26T09:36:09.274Z,22.23
2018-12-26T09:38:51.157Z,25.27
2018-12-26T09:41:32.376Z,26.03
2018-12-26T09:44:13.485Z,22.30
2018-12-26T09:46:54.911Z,22.80
2018-12-26T09:49:35.434Z,21.40
2018-12-26T09:52:16.963Z,22.80
2018-12-26T09:54:58.706Z,23.70
2018-12-26T09:57:40.495Z,25.27
2018-12-26T10:00:21.995Z,25.60
2018-12-26T10:03:03.454Z,22.30
2018-12-26T10:05:44.963Z,22.57
2018-12-26T10:08:26.606Z,25.43
2018-12-26T10:11:08.414Z,22.10
2018-12-26T10:13:50.886Z,24.00
2018-12-26T10:16:31.297Z,24.27
2018-12-26T10:19:12.127Z,21.97
2018-12-26T10:21:52.497Z,24.80
2018-12-26T10:24:33.420Z,23.37
2018-12-26T10:27:13.881Z,22.53
2018-12-26T10:29:55.333Z,24.33
2018-12-26T10:32:37.226Z,25.93
2018-12-26T10:35:19.303Z,24.57
2018-12-26T10:38:00.177Z,24.87
2018-12-26T10:40:40.955Z,20.83
2018-12-26T10:43:21.682Z,23.70
2018-12-26T10:46:02.435Z,22.60
2018-12-26T10:48:43.873Z,27.43
2018-12-26T10:51:25.668Z,20.80
2018-12-26T10:54:06.339Z,22.90
2018-12-26T10:59:35.622Z,25.67
2018-12-26T11:05:00.154Z,25.13
2018-12-26T11:10:29.126Z,22.13
2018-12-26T11:13:11.158Z,22.80
2018-12-26T11:15:53.215Z,21.77
2018-12-26T11:18:34.079Z,24.60
2018-12-26T11:21:14.808Z,23.50
2018-12-26T11:23:55.656Z,23.97
2018-12-26T11:26:38.237Z,23.93
2018-12-26T11:29:19.240Z,20.30
2018-12-26T11:32:02.593Z,22.47
2018-12-26T11:34:43.347Z,22.33
2018-12-26T11:40:07.663Z,22.80
2018-12-26T11:45:32.403Z,19.50
2018-12-26T11:48:13.714Z,22.47
2018-12-26T11:50:55.485Z,20.97
2018-12-26T11:53:37.303Z,20.07
2018-12-26T11:56:17.841Z,21.40
2018-12-26T11:58:59.028Z,23.83
2018-12-26T12:01:40.295Z,21.37
2018-12-26T12:04:22.439Z,20.47
2018-12-26T12:07:02.989Z,24.63
2018-12-26T12:09:43.549Z,22.80
2018-12-26T12:12:25.179Z,22.63
2018-12-26T12:15:06.506Z,23.47
2018-12-26T12:20:41.867Z,20.00
2018-12-26T12:26:36.504Z,20.90
2018-12-26T12:29:25.225Z,20.97
2018-12-26T12:32:32.179Z,19.37
2018-12-26T12:35:20.255Z,23.00
2018-12-26T12:38:01.267Z,21.87
2018-12-26T12:40:43.014Z,21.07
2018-12-26T12:43:23.563Z,21.47
2018-12-26T12:46:05.841Z,20.93
2018-12-26T12:48:46.906Z,25.43
2018-12-26T12:51:27.511Z,22.47
2018-12-26T12:54:09.212Z,20.47
2018-12-26T12:56:50.817Z,23.53
2018-12-26T12:59:31.739Z,20.70
2018-12-26T13:02:12.640Z,21.90
2018-12-26T13:04:53.938Z,19.87
2018-12-26T13:07:35.640Z,18.60
2018-12-26T13:10:44.406Z,20.10
2018-12-26T13:13:32.186Z,23.27
2018-12-26T13:16:20.307Z,26.00
2018-12-26T13:22:15.943Z,18.47
2018-12-26T13:27:57.135Z,23.00
2018-12-26T13:36:20.361Z,24.00
2018-12-26T13:42:16.648Z,22.20
2018-12-26T13:45:25.130Z,21.87
2018-12-26T13:48:13.751Z,21.90
2018-12-26T13:53:54.992Z,23.50
2018-12-26T13:57:02.204Z,23.67
2018-12-26T13:59:50.208Z,23.00
2018-12-26T14:02:59.030Z,22.23
2018-12-26T14:05:46.834Z,25.40
2018-12-26T14:08:35.229Z,23.03
2018-12-26T14:11:38.331Z,22.50
2018-12-26T14:14:12.526Z,23.43
2018-12-26T14:17:21.468Z,23.57
2018-12-26T14:20:10.507Z,24.07
2018-12-26T14:22:58.277Z,23.57
2018-12-26T14:29:00.047Z,21.43
2018-12-26T14:37:43.658Z,32.17
2018-12-26T14:40:23.975Z,24.53
2018-12-26T14:45:48.614Z,30.03
2018-12-26T14:48:30.137Z,23.90
2018-12-26T14:51:10.554Z,38.83
2018-12-26T14:53:51.318Z,25.73
2018-12-26T14:56:33.299Z,24.67
2018-12-26T14:59:13.734Z,23.87
2018-12-26T15:01:54.474Z,24.57
2018-12-26T15:04:35.406Z,22.03
2018-12-26T15:07:16.308Z,24.07
2018-12-26T15:09:58.080Z,22.90
2018-12-26T15:12:38.697Z,27.40
2018-12-26T15:15:20.120Z,23.67
2018-12-26T15:18:00.693Z,27.43
2018-12-26T15:20:41.945Z,24.00
2018-12-26T15:26:07.050Z,23.20
2018-12-26T15:31:32.303Z,25.07
2018-12-26T15:36:58.882Z,24.73
2018-12-26T15:42:29.287Z,23.27
2018-12-26T15:45:09.702Z,23.63
2018-12-26T15:47:50.689Z,24.93
2018-12-26T15:50:31.000Z,24.17
2018-12-26T15:53:12.078Z,23.50
2018-12-26T15:55:53.741Z,23.13
2018-12-26T15:58:34.869Z,24.00
2018-12-26T16:01:17.233Z,26.10
2018-12-26T16:03:58.946Z,22.57
2018-12-26T16:06:39.104Z,24.13
2018-12-26T16:09:20.862Z,26.97
2018-12-26T16:12:03.047Z,25.40
2018-12-26T16:14:44.591Z,24.50
2018-12-26T16:17:25.190Z,27.47
2018-12-26T16:20:08.356Z,24.67
2018-12-26T16:22:48.584Z,23.03
2018-12-26T16:28:14.723Z,26.67
2018-12-26T16:30:56.816Z,22.40
2018-12-26T16:33:38.190Z,26.13
2018-12-26T16:36:19.742Z,22.43
2018-12-26T16:39:00.303Z,20.33
2018-12-26T16:41:40.981Z,22.90
2018-12-26T16:44:22.822Z,22.73
2018-12-26T16:47:03.477Z,22.17
2018-12-26T16:49:44.036Z,21.27
2018-12-26T16:52:25.990Z,22.60
2018-12-26T16:55:06.796Z,21.03
2018-12-26T16:57:47.629Z,20.37
2018-12-26T17:00:29.261Z,21.93
2018-12-26T17:03:10.392Z,25.27
2018-12-26T17:11:21.874Z,29.37
2018-12-26T17:14:02.762Z,21.13
2018-12-26T17:16:44.704Z,26.10
2018-12-26T17:19:25.347Z,24.33
2018-12-26T17:22:07.442Z,21.10
2018-12-26T17:27:31.268Z,23.97
2018-12-26T17:30:11.877Z,25.53
2018-12-26T17:33:00.618Z,22.83
2018-12-26T17:35:36.809Z,19.83
2018-12-26T17:38:17.951Z,24.23
2018-12-26T17:40:59.029Z,21.97
2018-12-26T17:43:39.959Z,26.33
2018-12-26T17:46:21.993Z,22.17
2018-12-26T17:49:02.835Z,24.47
2018-12-26T17:51:43.383Z,25.33
2018-12-26T17:54:25.031Z,23.47
2018-12-26T17:57:07.736Z,25.23
2018-12-26T17:59:48.891Z,23.00
2018-12-26T18:02:29.779Z,26.27
2018-12-26T18:05:11.064Z,27.03
2018-12-26T18:07:53.409Z,27.67
2018-12-26T18:10:35.847Z,25.97
2018-12-26T18:13:20.782Z,31.03
2018-12-26T18:16:02.094Z,28.57
2018-12-26T18:18:42.889Z,26.87
2018-12-26T18:21:24.540Z,24.63
2018-12-26T18:24:05.686Z,26.93
2018-12-26T18:29:31.224Z,24.50
2018-12-26T18:32:12.432Z,28.03
2018-12-26T18:34:53.395Z,24.43
2018-12-26T18:37:34.498Z,28.87
2018-12-26T18:40:17.505Z,29.70
2018-12-26T18:42:58.532Z,28.10
2018-12-26T18:45:38.767Z,27.43
2018-12-26T18:48:19.985Z,32.57
2018-12-26T18:51:01.801Z,26.23
2018-12-26T18:53:42.295Z,28.30
2018-12-26T18:56:23.393Z,29.37
2018-12-26T18:59:05.330Z,31.33
2018-12-26T19:01:46.370Z,35.57
2018-12-26T19:04:29.209Z,34.80
2018-12-26T19:07:10.509Z,38.67
2018-12-26T19:12:42.618Z,32.83
2018-12-26T19:15:23.142Z,29.63
2018-12-26T19:18:04.237Z,39.20
2018-12-26T19:20:44.765Z,34.17
2018-12-26T19:23:27.458Z,36.57
2018-12-26T19:26:08.940Z,29.53
2018-12-26T19:28:49.425Z,28.83
2018-12-26T19:34:14.607Z,27.67
2018-12-26T19:36:55.183Z,31.07
2018-12-26T19:39:35.895Z,31.80
2018-12-26T19:42:17.700Z,33.87
2018-12-26T19:45:00.263Z,30.47
2018-12-26T19:47:40.595Z,30.63
2018-12-26T19:50:21.278Z,32.90
2018-12-26T19:53:01.751Z,33.03
2018-12-26T19:55:43.442Z,32.17
2018-12-26T19:58:25.369Z,29.80
2018-12-26T20:01:06.038Z,33.07
2018-12-26T20:03:46.787Z,33.30
2018-12-26T20:06:27.492Z,31.87
2018-12-26T20:09:09.425Z,30.27
2018-12-26T20:11:52.008Z,31.87
2018-12-26T20:14:34.414Z,29.00
2018-12-26T20:17:14.809Z,39.77
2018-12-26T20:19:55.477Z,34.63
2018-12-26T20:22:37.097Z,29.47
2018-12-26T20:25:19.185Z,35.90
2018-12-26T20:28:01.173Z,30.53
2018-12-26T20:30:43.165Z,31.27
2018-12-26T20:33:25.130Z,28.37
2018-12-26T20:36:06.346Z,28.77
2018-12-26T20:38:46.906Z,31.57
2018-12-26T20:47:34.191Z,32.87
2018-12-26T20:50:14.979Z,33.70
2018-12-26T20:52:56.928Z,33.47
2018-12-26T20:55:38.369Z,33.10
2018-12-26T21:01:31.414Z,33.30
2018-12-26T21:04:12.202Z,32.13
2018-12-26T21:06:52.935Z,28.13
2018-12-26T21:09:34.034Z,28.27
2018-12-26T21:12:14.694Z,29.40
2018-12-26T21:14:55.338Z,28.90
2018-12-26T21:17:36.229Z,27.47
2018-12-26T21:23:00.927Z,27.20
2018-12-26T21:25:46.748Z,31.33
2018-12-26T21:28:27.860Z,28.40
2018-12-26T21:31:09.345Z,29.83
2018-12-26T21:33:50.771Z,27.67
2018-12-26T21:36:31.902Z,28.57
2018-12-26T21:39:12.942Z,26.90
2018-12-26T21:41:54.895Z,26.13
2018-12-26T21:44:36.306Z,24.60
2018-12-26T21:47:18.207Z,24.93
2018-12-26T21:50:00.993Z,29.17
2018-12-26T21:52:42.905Z,24.90
2018-12-26T21:55:24.533Z,26.73
2018-12-26T21:58:05.787Z,28.87
2018-12-26T22:00:46.419Z,27.63
2018-12-26T22:03:27.361Z,29.03
2018-12-26T22:06:08.083Z,26.63
2018-12-26T22:08:49.775Z,28.10
2018-12-26T22:11:31.083Z,27.07
2018-12-26T22:16:56.269Z,27.57
2018-12-26T22:19:38.048Z,29.23
2018-12-26T22:22:20.147Z,30.23
2018-12-26T22:25:01.425Z,29.50
2018-12-26T22:27:43.362Z,28.37
2018-12-26T22:30:25.050Z,28.37
2018-12-26T22:33:06.406Z,30.83
2018-12-26T22:42:03.295Z,23.93
2018-12-26T22:44:44.659Z,28.80
2018-12-26T22:47:25.358Z,27.97
2018-12-26T22:50:06.054Z,27.40
2018-12-26T22:52:46.378Z,28.80
2018-12-26T22:55:26.946Z,25.37
2018-12-26T22:58:07.792Z,25.83
2018-12-26T23:00:47.924Z,24.87
2018-12-26T23:03:28.558Z,25.73
2018-12-26T23:06:10.154Z,26.00
2018-12-26T23:08:52.127Z,25.80
2018-12-26T23:14:12.991Z,25.23
2018-12-26T23:16:54.066Z,22.57
2018-12-26T23:19:35.033Z,23.87
2018-12-26T23:22:16.141Z,22.63
2018-12-26T23:24:56.658Z,24.23
2018-12-26T23:27:37.302Z,23.20
2018-12-26T23:30:17.885Z,24.60
2018-12-26T23:32:59.054Z,43.17
2018-12-26T23:35:39.703Z,30.93
2018-12-26T23:38:20.522Z,35.37
2018-12-26T23:41:01.310Z,25.90
2018-12-26T23:43:42.327Z,30.17
2018-12-26T23:46:23.941Z,30.43
2018-12-26T23:49:04.834Z,26.57
2018-12-26T23:51:46.330Z,24.97
2018-12-26T23:54:28.035Z,27.40
2018-12-26T23:57:08.904Z,25.77
2018-12-26T23:59:49.987Z,24.00
